sensor_id;sensor_type;location;lat;lon;timestamp;P1;durP1;ratioP1;P2;durP2;ratioP2
2928;SDS011;1474;51.460;7.150;2022-12-16T00:00:19;16.67;;;12.40;;
2928;SDS011;1474;51.460;7.150;2022-12-16T00:02:45;16.55;;;9.43;;
2928;SDS011;1474;51.460;7.150;2022-12-16T00:05:10;16.13;;;11.15;;
2928;SDS011;1474;51.460;7.150;2022-12-16T00:07:37;13.70;;;11.35;;
2928;SDS011;1474;51.460;7.150;2022-12-16T00:10:02;18.88;;;11.75;;
2928;SDS011;1474;51.460;7.150;2022-12-16T00:12:28;15.52;;;9.88;;
2928;SDS011;1474;51.460;7.150;2022-12-16T00:14:54;22.20;;;12.98;;
2928;SDS011;1474;51.460;7.150;2022-12-16T00:17:19;19.63;;;12.40;;
2928;SDS011;1474;51.460;7.150;2022-12-16T00:19:45;19.48;;;11.27;;
2928;SDS011;1474;51.460;7.150;2022-12-16T00:22:11;17.42;;;10.52;;
2928;SDS011;1474;51.460;7.150;2022-12-16T00:24:36;12.82;;;10.52;;
2928;SDS011;1474;51.460;7.150;2022-12-16T00:27:02;17.05;;;11.70;;
2928;SDS011;1474;51.460;7.150;2022-12-16T00:29:27;17.80;;;10.73;;
2928;SDS011;1474;51.460;7.150;2022-12-16T00:31:53;19.73;;;11.48;;
2928;SDS011;1474;51.460;7.150;2022-12-16T00:34:19;21.52;;;10.82;;
2928;SDS011;1474;51.460;7.150;2022-12-16T00:36:44;15.27;;;10.13;;
2928;SDS011;1474;51.460;7.150;2022-12-16T00:39:10;10.80;;;9.40;;
2928;SDS011;1474;51.460;7.150;2022-12-16T00:41:36;13.20;;;11.93;;
2928;SDS011;1474;51.460;7.150;2022-12-16T00:44:02;14.88;;;8.13;;
2928;SDS011;1474;51.460;7.150;2022-12-16T00:46:27;10.80;;;9.13;;
2928;SDS011;1474;51.460;7.150;2022-12-16T00:48:53;11.90;;;9.07;;
2928;SDS011;1474;51.460;7.150;2022-12-16T00:51:19;15.60;;;9.90;;
2928;SDS011;1474;51.460;7.150;2022-12-16T00:53:45;31.90;;;13.13;;
2928;SDS011;1474;51.460;7.150;2022-12-16T00:56:11;13.25;;;11.73;;
2928;SDS011;1474;51.460;7.150;2022-12-16T00:58:42;22.88;;;12.02;;
2928;SDS011;1474;51.460;7.150;2022-12-16T01:01:08;14.32;;;9.40;;
2928;SDS011;1474;51.460;7.150;2022-12-16T01:03:35;15.65;;;10.07;;
2928;SDS011;1474;51.460;7.150;2022-12-16T01:06:06;20.50;;;8.90;;
2928;SDS011;1474;51.460;7.150;2022-12-16T01:08:35;20.38;;;10.57;;
2928;SDS011;1474;51.460;7.150;2022-12-16T01:11:01;12.75;;;7.65;;
2928;SDS011;1474;51.460;7.150;2022-12-16T01:13:27;12.15;;;9.57;;
2928;SDS011;1474;51.460;7.150;2022-12-16T01:15:53;20.40;;;11.65;;
2928;SDS011;1474;51.460;7.150;2022-12-16T01:18:18;19.65;;;10.80;;
2928;SDS011;1474;51.460;7.150;2022-12-16T01:20:45;14.23;;;9.32;;
2928;SDS011;1474;51.460;7.150;2022-12-16T01:23:10;15.50;;;9.52;;
2928;SDS011;1474;51.460;7.150;2022-12-16T01:25:36;15.88;;;10.95;;
2928;SDS011;1474;51.460;7.150;2022-12-16T01:28:01;13.98;;;9.30;;
2928;SDS011;1474;51.460;7.150;2022-12-16T01:30:27;16.98;;;10.57;;
2928;SDS011;1474;51.460;7.150;2022-12-16T01:32:53;14.02;;;10.85;;
2928;SDS011;1474;51.460;7.150;2022-12-16T01:35:19;15.45;;;10.60;;
2928;SDS011;1474;51.460;7.150;2022-12-16T01:37:44;12.70;;;9.25;;
2928;SDS011;1474;51.460;7.150;2022-12-16T01:40:20;11.60;;;9.07;;
2928;SDS011;1474;51.460;7.150;2022-12-16T01:42:48;14.70;;;8.40;;
2928;SDS011;1474;51.460;7.150;2022-12-16T01:45:33;9.68;;;8.73;;
2928;SDS011;1474;51.460;7.150;2022-12-16T01:48:01;15.55;;;9.90;;
2928;SDS011;1474;51.460;7.150;2022-12-16T01:50:44;15.43;;;8.93;;
2928;SDS011;1474;51.460;7.150;2022-12-16T01:53:10;12.93;;;8.88;;
2928;SDS011;1474;51.460;7.150;2022-12-16T01:55:40;11.15;;;9.05;;
2928;SDS011;1474;51.460;7.150;2022-12-16T01:58:20;15.30;;;9.50;;
2928;SDS011;1474;51.460;7.150;2022-12-16T02:00:48;11.70;;;9.13;;
2928;SDS011;1474;51.460;7.150;2022-12-16T02:03:14;13.27;;;9.40;;
2928;SDS011;1474;51.460;7.150;2022-12-16T02:05:40;14.18;;;9.80;;
2928;SDS011;1474;51.460;7.150;2022-12-16T02:16:38;10.63;;;9.40;;
2928;SDS011;1474;51.460;7.150;2022-12-16T02:25:23;15.07;;;8.38;;
2928;SDS011;1474;51.460;7.150;2022-12-16T02:33:26;9.07;;;8.05;;
2928;SDS011;1474;51.460;7.150;2022-12-16T02:35:55;10.90;;;9.52;;
2928;SDS011;1474;51.460;7.150;2022-12-16T02:38:48;12.05;;;9.05;;
2928;SDS011;1474;51.460;7.150;2022-12-16T02:41:36;18.25;;;10.23;;
2928;SDS011;1474;51.460;7.150;2022-12-16T02:44:15;13.60;;;9.88;;
2928;SDS011;1474;51.460;7.150;2022-12-16T02:46:46;13.30;;;9.30;;
2928;SDS011;1474;51.460;7.150;2022-12-16T02:51:43;18.95;;;10.35;;
2928;SDS011;1474;51.460;7.150;2022-12-16T02:54:09;9.40;;;7.05;;
2928;SDS011;1474;51.460;7.150;2022-12-16T02:56:57;12.07;;;9.50;;
2928;SDS011;1474;51.460;7.150;2022-12-16T02:59:42;9.63;;;7.95;;
2928;SDS011;1474;51.460;7.150;2022-12-16T03:03:16;16.02;;;8.45;;
2928;SDS011;1474;51.460;7.150;2022-12-16T03:08:06;15.95;;;7.53;;
2928;SDS011;1474;51.460;7.150;2022-12-16T03:10:38;9.60;;;7.10;;
2928;SDS011;1474;51.460;7.150;2022-12-16T03:13:08;24.05;;;8.95;;
2928;SDS011;1474;51.460;7.150;2022-12-16T03:15:36;17.55;;;9.60;;
2928;SDS011;1474;51.460;7.150;2022-12-16T03:18:04;10.98;;;9.82;;
2928;SDS011;1474;51.460;7.150;2022-12-16T03:20:41;11.90;;;8.02;;
2928;SDS011;1474;51.460;7.150;2022-12-16T03:23:15;18.27;;;9.32;;
2928;SDS011;1474;51.460;7.150;2022-12-16T03:25:44;8.30;;;7.00;;
2928;SDS011;1474;51.460;7.150;2022-12-16T03:30:50;17.10;;;9.77;;
2928;SDS011;1474;51.460;7.150;2022-12-16T03:33:28;13.77;;;8.65;;
2928;SDS011;1474;51.460;7.150;2022-12-16T03:36:04;10.02;;;9.00;;
2928;SDS011;1474;51.460;7.150;2022-12-16T03:38:34;11.80;;;8.63;;
2928;SDS011;1474;51.460;7.150;2022-12-16T03:41:01;10.77;;;8.20;;
2928;SDS011;1474;51.460;7.150;2022-12-16T03:43:28;14.02;;;9.00;;
2928;SDS011;1474;51.460;7.150;2022-12-16T03:45:55;22.33;;;9.55;;
2928;SDS011;1474;51.460;7.150;2022-12-16T03:50:50;13.25;;;7.22;;
2928;SDS011;1474;51.460;7.150;2022-12-16T03:53:16;9.07;;;7.20;;
2928;SDS011;1474;51.460;7.150;2022-12-16T03:55:42;10.45;;;8.05;;
2928;SDS011;1474;51.460;7.150;2022-12-16T03:58:08;10.52;;;7.28;;
2928;SDS011;1474;51.460;7.150;2022-12-16T04:00:34;7.88;;;4.97;;
2928;SDS011;1474;51.460;7.150;2022-12-16T04:03:00;7.90;;;6.53;;
2928;SDS011;1474;51.460;7.150;2022-12-16T04:05:26;13.15;;;9.15;;
2928;SDS011;1474;51.460;7.150;2022-12-16T04:07:51;10.88;;;7.30;;
2928;SDS011;1474;51.460;7.150;2022-12-16T04:10:17;19.08;;;10.05;;
2928;SDS011;1474;51.460;7.150;2022-12-16T04:13:03;19.85;;;7.55;;
2928;SDS011;1474;51.460;7.150;2022-12-16T04:15:47;8.88;;;6.90;;
2928;SDS011;1474;51.460;7.150;2022-12-16T04:18:31;8.40;;;6.03;;
2928;SDS011;1474;51.460;7.150;2022-12-16T04:21:16;9.95;;;7.60;;
2928;SDS011;1474;51.460;7.150;2022-12-16T04:24:00;17.00;;;8.93;;
2928;SDS011;1474;51.460;7.150;2022-12-16T04:26:44;6.55;;;5.90;;
2928;SDS011;1474;51.460;7.150;2022-12-16T04:29:29;11.65;;;6.68;;
2928;SDS011;1474;51.460;7.150;2022-12-16T04:31:55;12.95;;;6.97;;
2928;SDS011;1474;51.460;7.150;2022-12-16T04:34:22;15.35;;;8.95;;
2928;SDS011;1474;51.460;7.150;2022-12-16T04:36:51;9.80;;;8.80;;
2928;SDS011;1474;51.460;7.150;2022-12-16T04:39:37;16.15;;;6.97;;
2928;SDS011;1474;51.460;7.150;2022-12-16T04:42:21;12.40;;;7.47;;
2928;SDS011;1474;51.460;7.150;2022-12-16T04:45:06;8.38;;;6.07;;
2928;SDS011;1474;51.460;7.150;2022-12-16T04:47:51;14.60;;;7.15;;
2928;SDS011;1474;51.460;7.150;2022-12-16T04:50:36;10.77;;;6.32;;
2928;SDS011;1474;51.460;7.150;2022-12-16T04:53:22;9.45;;;6.43;;
2928;SDS011;1474;51.460;7.150;2022-12-16T04:56:06;8.10;;;6.45;;
2928;SDS011;1474;51.460;7.150;2022-12-16T04:58:51;9.70;;;7.70;;
2928;SDS011;1474;51.460;7.150;2022-12-16T05:01:35;9.55;;;8.63;;
2928;SDS011;1474;51.460;7.150;2022-12-16T05:04:21;6.15;;;4.88;;
2928;SDS011;1474;51.460;7.150;2022-12-16T05:07:05;7.55;;;4.90;;
2928;SDS011;1474;51.460;7.150;2022-12-16T05:09:50;12.57;;;7.97;;
2928;SDS011;1474;51.460;7.150;2022-12-16T05:12:34;18.52;;;6.55;;
2928;SDS011;1474;51.460;7.150;2022-12-16T05:15:18;10.25;;;6.85;;
2928;SDS011;1474;51.460;7.150;2022-12-16T05:18:07;8.05;;;6.63;;
2928;SDS011;1474;51.460;7.150;2022-12-16T05:20:59;11.75;;;6.32;;
2928;SDS011;1474;51.460;7.150;2022-12-16T05:23:44;9.95;;;5.60;;
2928;SDS011;1474;51.460;7.150;2022-12-16T05:26:29;8.02;;;7.28;;
2928;SDS011;1474;51.460;7.150;2022-12-16T05:29:13;6.85;;;5.20;;
2928;SDS011;1474;51.460;7.150;2022-12-16T05:31:57;14.65;;;6.53;;
2928;SDS011;1474;51.460;7.150;2022-12-16T05:34:42;6.25;;;4.07;;
2928;SDS011;1474;51.460;7.150;2022-12-16T05:37:26;8.02;;;6.22;;
2928;SDS011;1474;51.460;7.150;2022-12-16T05:40:11;14.98;;;7.78;;
2928;SDS011;1474;51.460;7.150;2022-12-16T05:42:55;6.85;;;5.25;;
2928;SDS011;1474;51.460;7.150;2022-12-16T05:45:40;3.78;;;3.38;;
2928;SDS011;1474;51.460;7.150;2022-12-16T05:48:25;6.75;;;5.05;;
2928;SDS011;1474;51.460;7.150;2022-12-16T05:51:09;12.93;;;5.53;;
2928;SDS011;1474;51.460;7.150;2022-12-16T05:53:56;8.57;;;5.93;;
2928;SDS011;1474;51.460;7.150;2022-12-16T05:56:44;8.40;;;5.45;;
2928;SDS011;1474;51.460;7.150;2022-12-16T05:59:28;9.88;;;7.25;;
2928;SDS011;1474;51.460;7.150;2022-12-16T06:02:12;7.60;;;5.05;;
2928;SDS011;1474;51.460;7.150;2022-12-16T06:04:57;12.60;;;6.80;;
2928;SDS011;1474;51.460;7.150;2022-12-16T06:07:41;11.00;;;7.28;;
2928;SDS011;1474;51.460;7.150;2022-12-16T06:10:25;9.63;;;8.55;;
2928;SDS011;1474;51.460;7.150;2022-12-16T06:13:10;7.82;;;6.07;;
2928;SDS011;1474;51.460;7.150;2022-12-16T06:15:54;6.70;;;6.03;;
2928;SDS011;1474;51.460;7.150;2022-12-16T06:18:38;5.90;;;4.65;;
2928;SDS011;1474;51.460;7.150;2022-12-16T06:21:23;10.43;;;5.82;;
2928;SDS011;1474;51.460;7.150;2022-12-16T06:24:07;6.65;;;5.43;;
2928;SDS011;1474;51.460;7.150;2022-12-16T06:26:51;8.88;;;6.95;;
2928;SDS011;1474;51.460;7.150;2022-12-16T06:29:36;13.77;;;7.30;;
2928;SDS011;1474;51.460;7.150;2022-12-16T06:32:20;13.35;;;7.18;;
2928;SDS011;1474;51.460;7.150;2022-12-16T06:35:04;7.68;;;5.30;;
2928;SDS011;1474;51.460;7.150;2022-12-16T06:37:49;8.32;;;5.90;;
2928;SDS011;1474;51.460;7.150;2022-12-16T06:40:33;10.82;;;5.50;;
2928;SDS011;1474;51.460;7.150;2022-12-16T06:43:18;6.28;;;5.38;;
2928;SDS011;1474;51.460;7.150;2022-12-16T06:46:02;8.35;;;4.43;;
2928;SDS011;1474;51.460;7.150;2022-12-16T06:48:46;10.80;;;7.80;;
2928;SDS011;1474;51.460;7.150;2022-12-16T06:51:30;10.68;;;5.30;;
2928;SDS011;1474;51.460;7.150;2022-12-16T06:54:15;13.02;;;6.78;;
2928;SDS011;1474;51.460;7.150;2022-12-16T06:56:59;10.00;;;7.63;;
2928;SDS011;1474;51.460;7.150;2022-12-16T06:59:44;8.95;;;7.32;;
2928;SDS011;1474;51.460;7.150;2022-12-16T07:02:28;11.30;;;6.50;;
2928;SDS011;1474;51.460;7.150;2022-12-16T07:05:12;9.63;;;6.97;;
2928;SDS011;1474;51.460;7.150;2022-12-16T07:07:56;13.68;;;7.15;;
2928;SDS011;1474;51.460;7.150;2022-12-16T07:10:41;7.30;;;5.75;;
2928;SDS011;1474;51.460;7.150;2022-12-16T07:13:25;7.65;;;6.72;;
2928;SDS011;1474;51.460;7.150;2022-12-16T07:16:09;14.07;;;6.45;;
2928;SDS011;1474;51.460;7.150;2022-12-16T07:18:54;9.88;;;5.93;;
2928;SDS011;1474;51.460;7.150;2022-12-16T07:21:38;13.88;;;6.82;;
2928;SDS011;1474;51.460;7.150;2022-12-16T07:24:22;9.52;;;6.63;;
2928;SDS011;1474;51.460;7.150;2022-12-16T07:27:07;11.55;;;7.45;;
2928;SDS011;1474;51.460;7.150;2022-12-16T07:29:51;10.23;;;8.27;;
2928;SDS011;1474;51.460;7.150;2022-12-16T07:32:35;7.20;;;6.47;;
2928;SDS011;1474;51.460;7.150;2022-12-16T07:35:20;8.30;;;6.40;;
2928;SDS011;1474;51.460;7.150;2022-12-16T07:38:04;7.72;;;6.07;;
2928;SDS011;1474;51.460;7.150;2022-12-16T07:40:49;11.32;;;8.32;;
2928;SDS011;1474;51.460;7.150;2022-12-16T07:43:33;9.00;;;5.57;;
2928;SDS011;1474;51.460;7.150;2022-12-16T07:46:17;10.85;;;7.85;;
2928;SDS011;1474;51.460;7.150;2022-12-16T07:49:02;9.05;;;8.30;;
2928;SDS011;1474;51.460;7.150;2022-12-16T07:51:46;17.98;;;7.80;;
2928;SDS011;1474;51.460;7.150;2022-12-16T07:54:30;7.15;;;6.45;;
2928;SDS011;1474;51.460;7.150;2022-12-16T07:57:15;11.15;;;7.38;;
2928;SDS011;1474;51.460;7.150;2022-12-16T07:59:59;16.45;;;9.13;;
2928;SDS011;1474;51.460;7.150;2022-12-16T08:02:43;19.90;;;8.55;;
2928;SDS011;1474;51.460;7.150;2022-12-16T08:05:28;11.57;;;8.90;;
2928;SDS011;1474;51.460;7.150;2022-12-16T08:08:12;13.63;;;8.95;;
2928;SDS011;1474;51.460;7.150;2022-12-16T08:10:56;14.23;;;6.13;;
2928;SDS011;1474;51.460;7.150;2022-12-16T08:13:40;11.02;;;7.70;;
2928;SDS011;1474;51.460;7.150;2022-12-16T08:16:25;15.48;;;8.25;;
2928;SDS011;1474;51.460;7.150;2022-12-16T08:19:09;11.88;;;7.05;;
2928;SDS011;1474;51.460;7.150;2022-12-16T08:21:53;9.25;;;7.47;;
2928;SDS011;1474;51.460;7.150;2022-12-16T08:24:37;12.35;;;8.48;;
2928;SDS011;1474;51.460;7.150;2022-12-16T08:27:22;15.90;;;8.57;;
2928;SDS011;1474;51.460;7.150;2022-12-16T08:30:06;8.35;;;6.43;;
2928;SDS011;1474;51.460;7.150;2022-12-16T08:32:51;11.63;;;5.45;;
2928;SDS011;1474;51.460;7.150;2022-12-16T08:35:58;6.82;;;6.20;;
2928;SDS011;1474;51.460;7.150;2022-12-16T08:38:42;9.68;;;7.32;;
2928;SDS011;1474;51.460;7.150;2022-12-16T08:41:26;14.07;;;7.55;;
2928;SDS011;1474;51.460;7.150;2022-12-16T08:44:11;13.40;;;7.07;;
2928;SDS011;1474;51.460;7.150;2022-12-16T08:46:55;10.52;;;7.88;;
2928;SDS011;1474;51.460;7.150;2022-12-16T08:49:39;6.35;;;5.68;;
2928;SDS011;1474;51.460;7.150;2022-12-16T08:52:24;19.42;;;9.57;;
2928;SDS011;1474;51.460;7.150;2022-12-16T08:55:16;10.35;;;9.18;;
2928;SDS011;1474;51.460;7.150;2022-12-16T08:58:00;12.20;;;7.72;;
2928;SDS011;1474;51.460;7.150;2022-12-16T09:00:44;13.38;;;7.00;;
2928;SDS011;1474;51.460;7.150;2022-12-16T09:03:28;13.40;;;8.20;;
2928;SDS011;1474;51.460;7.150;2022-12-16T09:06:13;10.93;;;7.40;;
2928;SDS011;1474;51.460;7.150;2022-12-16T09:08:57;12.40;;;9.07;;
2928;SDS011;1474;51.460;7.150;2022-12-16T09:11:41;17.25;;;9.43;;
2928;SDS011;1474;51.460;7.150;2022-12-16T09:14:26;12.77;;;9.32;;
2928;SDS011;1474;51.460;7.150;2022-12-16T09:17:10;12.55;;;8.93;;
2928;SDS011;1474;51.460;7.150;2022-12-16T09:19:54;13.23;;;10.23;;
2928;SDS011;1474;51.460;7.150;2022-12-16T09:22:39;15.73;;;9.80;;
2928;SDS011;1474;51.460;7.150;2022-12-16T09:25:23;13.10;;;9.07;;
2928;SDS011;1474;51.460;7.150;2022-12-16T09:28:07;14.95;;;10.52;;
2928;SDS011;1474;51.460;7.150;2022-12-16T09:30:52;15.80;;;10.70;;
2928;SDS011;1474;51.460;7.150;2022-12-16T09:33:36;15.38;;;12.18;;
2928;SDS011;1474;51.460;7.150;2022-12-16T09:36:31;12.70;;;11.45;;
2928;SDS011;1474;51.460;7.150;2022-12-16T09:39:15;16.67;;;11.73;;
2928;SDS011;1474;51.460;7.150;2022-12-16T09:42:06;16.70;;;9.75;;
2928;SDS011;1474;51.460;7.150;2022-12-16T09:51:07;16.08;;;10.45;;
2928;SDS011;1474;51.460;7.150;2022-12-16T09:53:52;15.38;;;10.27;;
2928;SDS011;1474;51.460;7.150;2022-12-16T09:56:38;18.15;;;11.50;;
2928;SDS011;1474;51.460;7.150;2022-12-16T09:59:29;20.95;;;12.32;;
2928;SDS011;1474;51.460;7.150;2022-12-16T10:02:20;21.35;;;12.98;;
2928;SDS011;1474;51.460;7.150;2022-12-16T10:05:10;19.90;;;12.70;;
2928;SDS011;1474;51.460;7.150;2022-12-16T10:08:00;20.15;;;13.88;;
2928;SDS011;1474;51.460;7.150;2022-12-16T10:17:15;12.50;;;7.18;;
2928;SDS011;1474;51.460;7.150;2022-12-16T10:23:17;17.20;;;11.90;;
2928;SDS011;1474;51.460;7.150;2022-12-16T10:26:17;23.95;;;11.57;;
2928;SDS011;1474;51.460;7.150;2022-12-16T10:29:18;14.07;;;11.20;;
2928;SDS011;1474;51.460;7.150;2022-12-16T10:32:17;14.82;;;11.00;;
2928;SDS011;1474;51.460;7.150;2022-12-16T10:35:27;23.23;;;12.32;;
2928;SDS011;1474;51.460;7.150;2022-12-16T10:38:24;15.65;;;12.27;;
2928;SDS011;1474;51.460;7.150;2022-12-16T10:41:19;17.45;;;11.43;;
2928;SDS011;1474;51.460;7.150;2022-12-16T10:44:10;16.65;;;10.68;;
2928;SDS011;1474;51.460;7.150;2022-12-16T10:47:06;15.65;;;9.65;;
2928;SDS011;1474;51.460;7.150;2022-12-16T10:49:52;12.73;;;10.50;;
2928;SDS011;1474;51.460;7.150;2022-12-16T10:58:52;22.52;;;11.07;;
2928;SDS011;1474;51.460;7.150;2022-12-16T11:01:38;21.58;;;11.65;;
2928;SDS011;1474;51.460;7.150;2022-12-16T11:13:13;16.48;;;11.02;;
2928;SDS011;1474;51.460;7.150;2022-12-16T11:16:05;23.23;;;12.75;;
2928;SDS011;1474;51.460;7.150;2022-12-16T11:18:51;20.33;;;14.55;;
2928;SDS011;1474;51.460;7.150;2022-12-16T11:21:35;22.75;;;14.05;;
2928;SDS011;1474;51.460;7.150;2022-12-16T11:24:20;19.77;;;12.57;;
2928;SDS011;1474;51.460;7.150;2022-12-16T11:27:05;23.02;;;13.90;;
2928;SDS011;1474;51.460;7.150;2022-12-16T11:30:19;21.02;;;13.13;;
2928;SDS011;1474;51.460;7.150;2022-12-16T11:33:26;23.15;;;12.73;;
2928;SDS011;1474;51.460;7.150;2022-12-16T11:36:15;17.15;;;10.00;;
2928;SDS011;1474;51.460;7.150;2022-12-16T11:39:02;18.60;;;10.30;;
2928;SDS011;1474;51.460;7.150;2022-12-16T11:41:48;15.32;;;9.63;;
2928;SDS011;1474;51.460;7.150;2022-12-16T11:44:37;21.98;;;12.15;;
2928;SDS011;1474;51.460;7.150;2022-12-16T11:47:35;21.75;;;11.45;;
2928;SDS011;1474;51.460;7.150;2022-12-16T11:50:25;17.40;;;10.77;;
2928;SDS011;1474;51.460;7.150;2022-12-16T11:56:14;16.83;;;11.27;;
2928;SDS011;1474;51.460;7.150;2022-12-16T11:59:04;19.17;;;11.82;;
2928;SDS011;1474;51.460;7.150;2022-12-16T12:02:39;19.75;;;11.20;;
2928;SDS011;1474;51.460;7.150;2022-12-16T12:05:24;17.92;;;11.38;;
2928;SDS011;1474;51.460;7.150;2022-12-16T12:08:17;19.05;;;11.65;;
2928;SDS011;1474;51.460;7.150;2022-12-16T12:11:22;18.25;;;12.05;;
2928;SDS011;1474;51.460;7.150;2022-12-16T12:17:36;16.33;;;10.25;;
2928;SDS011;1474;51.460;7.150;2022-12-16T12:23:45;19.10;;;11.10;;
2928;SDS011;1474;51.460;7.150;2022-12-16T12:26:32;22.27;;;11.63;;
2928;SDS011;1474;51.460;7.150;2022-12-16T12:32:37;17.67;;;11.00;;
2928;SDS011;1474;51.460;7.150;2022-12-16T12:35:36;18.95;;;12.40;;
2928;SDS011;1474;51.460;7.150;2022-12-16T12:38:59;17.77;;;12.18;;
2928;SDS011;1474;51.460;7.150;2022-12-16T12:51:17;22.85;;;12.68;;
2928;SDS011;1474;51.460;7.150;2022-12-16T12:57:36;22.35;;;11.90;;
2928;SDS011;1474;51.460;7.150;2022-12-16T13:00:24;28.13;;;12.95;;
2928;SDS011;1474;51.460;7.150;2022-12-16T13:06:22;16.33;;;11.73;;
2928;SDS011;1474;51.460;7.150;2022-12-16T13:15:02;18.35;;;14.20;;
2928;SDS011;1474;51.460;7.150;2022-12-16T13:20:44;20.10;;;13.48;;
2928;SDS011;1474;51.460;7.150;2022-12-16T13:23:37;24.00;;;14.23;;
2928;SDS011;1474;51.460;7.150;2022-12-16T13:26:24;16.83;;;13.60;;
2928;SDS011;1474;51.460;7.150;2022-12-16T13:35:25;27.52;;;14.82;;
2928;SDS011;1474;51.460;7.150;2022-12-16T13:38:03;28.25;;;14.98;;
2928;SDS011;1474;51.460;7.150;2022-12-16T13:46:44;24.57;;;15.53;;
2928;SDS011;1474;51.460;7.150;2022-12-16T13:56:08;26.27;;;14.63;;
2928;SDS011;1474;51.460;7.150;2022-12-16T13:58:46;19.90;;;14.38;;
2928;SDS011;1474;51.460;7.150;2022-12-16T14:04:32;31.38;;;17.58;;
2928;SDS011;1474;51.460;7.150;2022-12-16T14:07:20;26.48;;;17.15;;
2928;SDS011;1474;51.460;7.150;2022-12-16T14:10:21;26.02;;;15.98;;
2928;SDS011;1474;51.460;7.150;2022-12-16T14:13:16;21.08;;;14.55;;
2928;SDS011;1474;51.460;7.150;2022-12-16T14:25:14;26.90;;;16.35;;
2928;SDS011;1474;51.460;7.150;2022-12-16T14:28:06;27.40;;;17.13;;
2928;SDS011;1474;51.460;7.150;2022-12-16T14:31:02;28.80;;;16.73;;
2928;SDS011;1474;51.460;7.150;2022-12-16T14:33:51;28.80;;;16.30;;
2928;SDS011;1474;51.460;7.150;2022-12-16T14:36:37;24.92;;;16.30;;
2928;SDS011;1474;51.460;7.150;2022-12-16T14:39:26;29.45;;;16.00;;
2928;SDS011;1474;51.460;7.150;2022-12-16T14:42:20;26.00;;;16.70;;
2928;SDS011;1474;51.460;7.150;2022-12-16T14:45:24;27.13;;;16.15;;
2928;SDS011;1474;51.460;7.150;2022-12-16T14:51:16;23.63;;;13.98;;
2928;SDS011;1474;51.460;7.150;2022-12-16T15:00:19;29.65;;;15.45;;
2928;SDS011;1474;51.460;7.150;2022-12-16T15:05:50;26.08;;;16.40;;
2928;SDS011;1474;51.460;7.150;2022-12-16T15:08:38;23.80;;;15.13;;
2928;SDS011;1474;51.460;7.150;2022-12-16T15:11:45;24.52;;;16.85;;
2928;SDS011;1474;51.460;7.150;2022-12-16T15:14:32;25.70;;;15.52;;
2928;SDS011;1474;51.460;7.150;2022-12-16T15:17:19;26.13;;;17.45;;
2928;SDS011;1474;51.460;7.150;2022-12-16T15:20:05;29.35;;;17.58;;
2928;SDS011;1474;51.460;7.150;2022-12-16T15:23:10;21.90;;;15.65;;
2928;SDS011;1474;51.460;7.150;2022-12-16T15:26:08;25.13;;;16.30;;
2928;SDS011;1474;51.460;7.150;2022-12-16T15:29:00;27.85;;;15.45;;
2928;SDS011;1474;51.460;7.150;2022-12-16T15:31:44;26.08;;;16.25;;
2928;SDS011;1474;51.460;7.150;2022-12-16T15:34:36;24.65;;;15.88;;
2928;SDS011;1474;51.460;7.150;2022-12-16T15:37:29;19.00;;;13.85;;
2928;SDS011;1474;51.460;7.150;2022-12-16T15:40:27;28.48;;;15.98;;
2928;SDS011;1474;51.460;7.150;2022-12-16T15:43:27;37.53;;;16.90;;
2928;SDS011;1474;51.460;7.150;2022-12-16T15:46:19;28.27;;;17.25;;
2928;SDS011;1474;51.460;7.150;2022-12-16T15:49:22;29.40;;;16.73;;
2928;SDS011;1474;51.460;7.150;2022-12-16T15:58:13;35.58;;;17.38;;
2928;SDS011;1474;51.460;7.150;2022-12-16T16:01:04;35.20;;;20.52;;
2928;SDS011;1474;51.460;7.150;2022-12-16T16:03:50;37.55;;;20.73;;
2928;SDS011;1474;51.460;7.150;2022-12-16T16:06:36;44.95;;;22.00;;
2928;SDS011;1474;51.460;7.150;2022-12-16T16:09:25;34.10;;;20.23;;
2928;SDS011;1474;51.460;7.150;2022-12-16T16:12:13;38.63;;;21.13;;
2928;SDS011;1474;51.460;7.150;2022-12-16T16:14:58;51.20;;;21.42;;
2928;SDS011;1474;51.460;7.150;2022-12-16T16:17:43;40.78;;;23.40;;
2928;SDS011;1474;51.460;7.150;2022-12-16T16:20:29;40.35;;;22.05;;
2928;SDS011;1474;51.460;7.150;2022-12-16T16:23:16;50.30;;;23.42;;
2928;SDS011;1474;51.460;7.150;2022-12-16T16:26:01;45.88;;;21.13;;
2928;SDS011;1474;51.460;7.150;2022-12-16T16:28:45;50.60;;;24.42;;
2928;SDS011;1474;51.460;7.150;2022-12-16T16:31:30;42.05;;;21.38;;
2928;SDS011;1474;51.460;7.150;2022-12-16T16:34:14;42.47;;;24.08;;
2928;SDS011;1474;51.460;7.150;2022-12-16T16:36:58;50.13;;;22.88;;
2928;SDS011;1474;51.460;7.150;2022-12-16T16:39:43;55.47;;;25.17;;
2928;SDS011;1474;51.460;7.150;2022-12-16T16:42:28;44.67;;;22.02;;
2928;SDS011;1474;51.460;7.150;2022-12-16T16:45:14;52.00;;;25.73;;
2928;SDS011;1474;51.460;7.150;2022-12-16T16:48:02;53.60;;;24.55;;
2928;SDS011;1474;51.460;7.150;2022-12-16T16:50:59;54.65;;;27.48;;
2928;SDS011;1474;51.460;7.150;2022-12-16T16:53:44;40.85;;;22.85;;
2928;SDS011;1474;51.460;7.150;2022-12-16T16:56:29;52.47;;;22.83;;
2928;SDS011;1474;51.460;7.150;2022-12-16T16:59:15;54.88;;;25.55;;
2928;SDS011;1474;51.460;7.150;2022-12-16T17:01:59;57.60;;;24.30;;
2928;SDS011;1474;51.460;7.150;2022-12-16T17:04:44;55.75;;;28.85;;
2928;SDS011;1474;51.460;7.150;2022-12-16T17:07:28;44.45;;;22.42;;
2928;SDS011;1474;51.460;7.150;2022-12-16T17:10:12;59.05;;;25.33;;
2928;SDS011;1474;51.460;7.150;2022-12-16T17:12:56;40.22;;;23.95;;
2928;SDS011;1474;51.460;7.150;2022-12-16T17:15:41;42.00;;;23.02;;
2928;SDS011;1474;51.460;7.150;2022-12-16T17:18:25;44.38;;;22.73;;
2928;SDS011;1474;51.460;7.150;2022-12-16T17:21:09;45.50;;;21.95;;
2928;SDS011;1474;51.460;7.150;2022-12-16T17:23:54;41.35;;;20.15;;
2928;SDS011;1474;51.460;7.150;2022-12-16T17:26:41;34.50;;;18.00;;
2928;SDS011;1474;51.460;7.150;2022-12-16T17:29:26;37.55;;;19.25;;
2928;SDS011;1474;51.460;7.150;2022-12-16T17:32:11;26.42;;;16.60;;
2928;SDS011;1474;51.460;7.150;2022-12-16T17:34:55;33.72;;;18.92;;
2928;SDS011;1474;51.460;7.150;2022-12-16T17:37:40;43.33;;;21.20;;
2928;SDS011;1474;51.460;7.150;2022-12-16T17:40:25;37.03;;;18.33;;
2928;SDS011;1474;51.460;7.150;2022-12-16T17:43:09;37.13;;;19.33;;
2928;SDS011;1474;51.460;7.150;2022-12-16T17:46:00;32.60;;;15.75;;
2928;SDS011;1474;51.460;7.150;2022-12-16T17:48:52;37.70;;;18.65;;
2928;SDS011;1474;51.460;7.150;2022-12-16T17:51:37;34.90;;;20.33;;
2928;SDS011;1474;51.460;7.150;2022-12-16T17:54:22;35.42;;;18.17;;
2928;SDS011;1474;51.460;7.150;2022-12-16T17:57:06;29.38;;;16.02;;
2928;SDS011;1474;51.460;7.150;2022-12-16T17:59:51;51.10;;;17.08;;
2928;SDS011;1474;51.460;7.150;2022-12-16T18:02:35;57.35;;;16.20;;
2928;SDS011;1474;51.460;7.150;2022-12-16T18:05:19;34.80;;;18.35;;
2928;SDS011;1474;51.460;7.150;2022-12-16T18:08:03;37.35;;;16.33;;
2928;SDS011;1474;51.460;7.150;2022-12-16T18:10:52;44.58;;;19.40;;
2928;SDS011;1474;51.460;7.150;2022-12-16T18:13:36;38.75;;;19.75;;
2928;SDS011;1474;51.460;7.150;2022-12-16T18:16:20;42.22;;;19.85;;
2928;SDS011;1474;51.460;7.150;2022-12-16T18:19:05;44.72;;;19.52;;
2928;SDS011;1474;51.460;7.150;2022-12-16T18:21:49;35.53;;;15.48;;
2928;SDS011;1474;51.460;7.150;2022-12-16T18:24:34;27.77;;;15.00;;
2928;SDS011;1474;51.460;7.150;2022-12-16T18:27:19;30.70;;;15.02;;
2928;SDS011;1474;51.460;7.150;2022-12-16T18:30:03;32.83;;;15.88;;
2928;SDS011;1474;51.460;7.150;2022-12-16T18:32:55;23.77;;;12.02;;
2928;SDS011;1474;51.460;7.150;2022-12-16T18:35:39;37.72;;;17.42;;
2928;SDS011;1474;51.460;7.150;2022-12-16T18:38:24;30.52;;;16.42;;
2928;SDS011;1474;51.460;7.150;2022-12-16T18:41:13;35.67;;;17.45;;
2928;SDS011;1474;51.460;7.150;2022-12-16T18:44:03;37.33;;;17.85;;
2928;SDS011;1474;51.460;7.150;2022-12-16T18:46:47;34.17;;;17.08;;
2928;SDS011;1474;51.460;7.150;2022-12-16T18:49:32;20.77;;;13.00;;
2928;SDS011;1474;51.460;7.150;2022-12-16T18:52:17;34.00;;;18.75;;
2928;SDS011;1474;51.460;7.150;2022-12-16T18:55:01;47.63;;;16.70;;
2928;SDS011;1474;51.460;7.150;2022-12-16T18:57:45;38.47;;;18.27;;
2928;SDS011;1474;51.460;7.150;2022-12-16T19:00:29;48.72;;;19.98;;